Aviation Digital Data Service (ADDS)

Output produced by METARs form (1549 UTC 23 August 2017)
found at http://aviationweather.gov/adds/metars/
 
KFAY 231219Z 2312/2412 22008KT P6SM FEW100 FEW250 
     FM232000 23010KT P6SM VCSH SCT045 SCT250 
     TEMPO 2322/2402 3SM -TSRA BKN030CB 
     FM240700 VRB03KT 6SM BR BKN100 
     FM241100 01004KT 4SM BR OVC015